Time;durP1;ratioP1;P1;durP2;ratioP2;P2;SDS_P1;SDS_P2;PMS_P1;PMS_P2;Temp;Humidity;BMP_temperature;BMP_pressure;BME280_temperature;BME280_humidity;BME280_pressure;Samples;Min_cycle;Max_cycle;Signal;HPM_P1;HPM_P2
2022/03/15 00:01:47;;;;;;;105.50;15.18;;;;;;;;;;20917216;28;20077;-72
2022/03/15 00:11:49;;;;;;;125.47;17.15;;;;;;;;;;20916141;28;20084;-72
2022/03/15 00:21:51;;;;;;;103.32;13.55;;;;;;;;;;20921113;28;20462;-72
2022/03/15 00:31:53;;;;;;;101.50;14.88;;;;;;;;;;20916393;28;20107;-68
2022/03/15 00:41:54;;;;;;;107.15;11.95;;;;;;;;;;20914360;28;20146;-72
2022/03/15 00:51:56;;;;;;;108.25;13.77;;;;;;;;;;20914247;28;20398;-71
2022/03/15 01:01:58;;;;;;;110.55;15.95;;;;;;;;;;20913215;28;20049;-66
2022/03/15 01:12:00;;;;;;;122.30;14.63;;;;;;;;;;20911903;28;20085;-69
2022/03/15 01:22:02;;;;;;;133.52;19.02;;;;;;;;;;20912494;28;20412;-71
2022/03/15 01:32:05;;;;;;;137.43;17.38;;;;;;;;;;20911661;28;20049;-70
2022/03/15 01:42:07;;;;;;;144.77;17.20;;;;;;;;;;20912647;28;20045;-62
2022/03/15 01:52:13;;;;;;;142.38;19.02;;;;;;;;;;20918328;28;20045;-64
2022/03/15 02:02:15;;;;;;;150.27;20.75;;;;;;;;;;20936552;28;20554;-70
2022/03/15 02:12:16;;;;;;;159.48;24.70;;;;;;;;;;20931346;28;20132;-72
2022/03/15 02:22:19;;;;;;;179.13;25.58;;;;;;;;;;20923882;28;20390;-72
2022/03/15 02:32:23;;;;;;;192.73;26.70;;;;;;;;;;20924579;28;20084;-68
2022/03/15 02:42:35;;;;;;;163.43;25.48;;;;;;;;;;20922634;28;20056;-71
2022/03/15 02:52:38;;;;;;;206.27;25.75;;;;;;;;;;20922025;28;20052;-68
2022/03/15 03:02:42;;;;;;;220.13;26.50;;;;;;;;;;20921462;28;20120;-71
2022/03/15 03:12:44;;;;;;;208.57;26.98;;;;;;;;;;20926365;28;20037;-69
2022/03/15 03:22:47;;;;;;;247.68;29.50;;;;;;;;;;20930480;28;20053;-72
2022/03/15 03:32:49;;;;;;;202.93;27.80;;;;;;;;;;20918729;28;20099;-72
2022/03/15 03:42:51;;;;;;;194.43;28.40;;;;;;;;;;20918487;28;20095;-71
2022/03/15 03:52:54;;;;;;;231.63;31.20;;;;;;;;;;20918299;28;20132;-71
2022/03/15 04:03:00;;;;;;;221.63;33.83;;;;;;;;;;20916310;28;20049;-72
2022/03/15 04:13:03;;;;;;;213.25;30.08;;;;;;;;;;20915197;28;20049;-73
2022/03/15 04:23:05;;;;;;;233.85;33.17;;;;;;;;;;20915073;28;20128;-71
2022/03/15 04:33:07;;;;;;;228.32;31.80;;;;;;;;;;20915009;28;20045;-71
2022/03/15 04:43:10;;;;;;;213.82;31.38;;;;;;;;;;20913218;28;20041;-72
2022/03/15 04:53:13;;;;;;;243.98;34.42;;;;;;;;;;20913656;28;20114;-69
2022/03/15 05:03:17;;;;;;;227.98;33.72;;;;;;;;;;20912218;28;20057;-69
2022/03/15 05:13:20;;;;;;;217.20;32.80;;;;;;;;;;20912108;28;20049;-69
2022/03/15 05:23:23;;;;;;;227.83;36.13;;;;;;;;;;20912076;28;20076;-66
2022/03/15 05:33:24;;;;;;;231.60;32.03;;;;;;;;;;20922416;28;20053;-68
2022/03/15 05:43:26;;;;;;;235.75;32.60;;;;;;;;;;20922339;28;20060;-70
2022/03/15 05:53:28;;;;;;;194.60;30.70;;;;;;;;;;20921603;28;20500;-66
2022/03/15 06:03:30;;;;;;;184.23;28.17;;;;;;;;;;20920792;28;20401;-64
2022/03/15 06:13:31;;;;;;;209.55;32.38;;;;;;;;;;20925289;28;20516;-65
2022/03/15 06:23:33;;;;;;;196.32;30.30;;;;;;;;;;20881181;28;1183117;-67
2022/03/15 06:33:35;;;;;;;189.27;31.15;;;;;;;;;;20922719;28;20057;-63
2022/03/15 06:43:36;;;;;;;207.60;30.17;;;;;;;;;;20923084;28;20049;-64
2022/03/15 06:53:38;;;;;;;223.43;33.50;;;;;;;;;;20922950;28;20387;-66
2022/03/15 07:03:39;;;;;;;187.93;28.73;;;;;;;;;;20920878;28;20049;-59
2022/03/15 07:13:41;;;;;;;207.57;29.05;;;;;;;;;;20921085;28;20424;-71
2022/03/15 07:23:43;;;;;;;214.50;31.95;;;;;;;;;;20919593;28;20079;-70
2022/03/15 07:33:45;;;;;;;198.07;26.90;;;;;;;;;;20919729;28;20064;-68
2022/03/15 07:43:46;;;;;;;187.95;29.83;;;;;;;;;;20922688;28;20049;-67
2022/03/15 07:53:48;;;;;;;189.43;31.00;;;;;;;;;;20920279;28;20481;-71
2022/03/15 08:03:53;;;;;;;167.82;27.70;;;;;;;;;;20942909;28;20045;-62
2022/03/15 08:13:55;;;;;;;205.43;26.52;;;;;;;;;;20916940;28;20087;-65
2022/03/15 08:23:57;;;;;;;147.90;25.80;;;;;;;;;;20915005;28;20067;-65
2022/03/15 08:33:59;;;;;;;195.63;28.05;;;;;;;;;;20913183;28;20057;-68
2022/03/15 08:44:01;;;;;;;163.43;26.17;;;;;;;;;;20913198;28;20131;-67
2022/03/15 08:54:03;;;;;;;157.02;21.65;;;;;;;;;;20912963;28;20053;-66
2022/03/15 09:04:05;;;;;;;143.60;24.52;;;;;;;;;;20912504;28;20049;-62
2022/03/15 09:14:06;;;;;;;160.60;25.13;;;;;;;;;;20913687;28;20470;-59
2022/03/15 09:24:08;;;;;;;162.93;24.63;;;;;;;;;;20911158;28;20111;-66
2022/03/15 09:34:10;;;;;;;113.72;18.98;;;;;;;;;;20910601;28;20049;-62
2022/03/15 09:44:12;;;;;;;143.68;21.90;;;;;;;;;;20910895;28;20045;-63
2022/03/15 09:54:14;;;;;;;126.05;21.50;;;;;;;;;;20921813;28;20504;-66
2022/03/15 10:04:23;;;;;;;121.60;19.48;;;;;;;;;;20915624;28;20603;-62
2022/03/15 10:14:25;;;;;;;123.35;18.73;;;;;;;;;;20893847;28;20054;-57
2022/03/15 10:24:28;;;;;;;121.32;22.20;;;;;;;;;;20865096;28;20073;-55
2022/03/15 10:34:30;;;;;;;136.80;21.15;;;;;;;;;;20847512;28;20071;-64
2022/03/15 10:44:36;;;;;;;126.07;21.33;;;;;;;;;;20921958;28;20051;-63
2022/03/15 10:54:38;;;;;;;133.45;21.90;;;;;;;;;;20920523;28;20496;-64
2022/03/15 11:04:47;;;;;;;107.97;19.05;;;;;;;;;;20920669;28;20045;-59
2022/03/15 11:14:54;;;;;;;117.80;20.40;;;;;;;;;;20918372;28;20045;-62
2022/03/15 11:25:02;;;;;;;115.85;22.38;;;;;;;;;;20916516;28;20088;-70
2022/03/15 11:35:05;;;;;;;108.72;20.83;;;;;;;;;;20918464;28;20049;-60
2022/03/15 11:45:22;;;;;;;115.32;21.13;;;;;;;;;;20916747;28;20456;-60
2022/03/15 11:55:28;;;;;;;124.30;20.30;;;;;;;;;;20917597;28;20075;-65
2022/03/15 12:05:31;;;;;;;108.20;18.45;;;;;;;;;;20916341;28;20409;-61
2022/03/15 12:15:36;;;;;;;130.88;20.25;;;;;;;;;;20915956;28;20053;-60
2022/03/15 12:25:38;;;;;;;108.18;20.30;;;;;;;;;;20912742;28;20156;-56
2022/03/15 12:35:41;;;;;;;105.22;18.65;;;;;;;;;;20913134;28;20459;-60
2022/03/15 12:45:47;;;;;;;104.50;18.00;;;;;;;;;;20912464;28;20064;-60
2022/03/15 12:55:49;;;;;;;105.65;19.52;;;;;;;;;;20912936;28;20512;-60
2022/03/15 13:05:51;;;;;;;134.35;21.00;;;;;;;;;;20912905;28;20409;-60
2022/03/15 13:16:08;;;;;;;118.93;21.65;;;;;;;;;;20911701;28;20063;-57
2022/03/15 13:26:12;;;;;;;122.78;23.92;;;;;;;;;;20911039;28;20056;-61
2022/03/15 13:36:15;;;;;;;114.72;19.85;;;;;;;;;;20911620;28;20484;-59
2022/03/15 13:46:18;;;;;;;130.75;22.30;;;;;;;;;;20915553;28;20060;-61
2022/03/15 13:56:20;;;;;;;134.55;21.85;;;;;;;;;;20926673;28;20049;-60
2022/03/15 14:06:33;;;;;;;125.90;20.15;;;;;;;;;;20927172;28;20049;-59
2022/03/15 14:16:35;;;;;;;151.10;24.50;;;;;;;;;;20925143;28;20510;-58
2022/03/15 14:26:37;;;;;;;131.07;22.05;;;;;;;;;;20922784;28;20386;-60
2022/03/15 14:36:39;;;;;;;150.10;24.02;;;;;;;;;;20924226;28;20124;-64
2022/03/15 14:46:44;;;;;;;136.30;24.50;;;;;;;;;;20923619;28;20485;-61
2022/03/15 14:56:47;;;;;;;137.60;24.17;;;;;;;;;;20922528;28;20397;-61
2022/03/15 15:06:49;;;;;;;126.70;22.43;;;;;;;;;;20921656;28;20049;-57
2022/03/15 15:16:53;;;;;;;142.52;24.70;;;;;;;;;;20920918;28;20064;-61
2022/03/15 15:26:55;;;;;;;133.83;21.83;;;;;;;;;;20919483;28;20501;-63
2022/03/15 15:36:57;;;;;;;142.82;24.17;;;;;;;;;;20919122;28;20045;-61
2022/03/15 15:46:59;;;;;;;147.93;24.30;;;;;;;;;;20916738;28;20081;-56
2022/03/15 15:57:01;;;;;;;182.15;28.83;;;;;;;;;;20918465;28;20048;-63
2022/03/15 16:07:04;;;;;;;184.82;28.35;;;;;;;;;;20916066;28;20143;-60
2022/03/15 16:17:06;;;;;;;153.20;26.30;;;;;;;;;;20916337;28;20052;-58
2022/03/15 16:27:08;;;;;;;179.40;29.25;;;;;;;;;;20914871;28;20448;-61
2022/03/15 16:37:10;;;;;;;178.57;28.13;;;;;;;;;;20915213;28;20045;-61
2022/03/15 16:47:12;;;;;;;171.68;28.40;;;;;;;;;;20913694;28;20480;-64
2022/03/15 16:57:14;;;;;;;192.82;28.60;;;;;;;;;;20912248;28;20045;-61
2022/03/15 17:07:15;;;;;;;196.57;28.48;;;;;;;;;;20912499;28;20048;-61
2022/03/15 17:17:18;;;;;;;181.25;28.20;;;;;;;;;;20912261;28;20045;-61
2022/03/15 17:27:21;;;;;;;161.48;24.10;;;;;;;;;;20928744;28;20052;-62
2022/03/15 17:37:23;;;;;;;188.32;44.40;;;;;;;;;;20927553;28;20049;-59
2022/03/15 17:47:25;;;;;;;127.57;24.00;;;;;;;;;;20927949;28;20049;-59
2022/03/15 17:57:26;;;;;;;153.43;24.10;;;;;;;;;;20925890;28;20048;-59
2022/03/15 18:07:28;;;;;;;113.15;21.65;;;;;;;;;;20926477;28;20056;-59
2022/03/15 18:17:34;;;;;;;116.68;22.02;;;;;;;;;;20926816;28;20045;-63
2022/03/15 18:27:36;;;;;;;112.53;18.92;;;;;;;;;;20926451;28;20060;-61
2022/03/15 18:37:40;;;;;;;108.93;21.83;;;;;;;;;;20922501;28;20111;-57
2022/03/15 18:47:42;;;;;;;128.02;19.77;;;;;;;;;;20923398;28;20053;-57
2022/03/15 18:57:44;;;;;;;110.18;19.10;;;;;;;;;;20920326;28;20064;-58
2022/03/15 19:07:50;;;;;;;89.67;15.30;;;;;;;;;;20921595;28;20135;-59
2022/03/15 19:17:52;;;;;;;99.88;17.67;;;;;;;;;;20923701;28;20073;-60
2022/03/15 19:27:54;;;;;;;94.20;17.30;;;;;;;;;;20921376;28;20494;-57
2022/03/15 19:37:57;;;;;;;100.43;17.63;;;;;;;;;;20920090;28;20048;-58
2022/03/15 19:47:58;;;;;;;108.47;18.15;;;;;;;;;;20918210;28;20049;-60
2022/03/15 19:58:00;;;;;;;89.70;17.98;;;;;;;;;;20921707;28;20114;-62
2022/03/15 20:08:02;;;;;;;101.85;19.88;;;;;;;;;;20917693;28;20439;-61
2022/03/15 20:18:07;;;;;;;103.95;20.38;;;;;;;;;;20916465;28;20041;-62
2022/03/15 20:28:11;;;;;;;104.22;17.77;;;;;;;;;;20916676;28;20075;-61
2022/03/15 20:38:13;;;;;;;108.30;20.00;;;;;;;;;;20914823;28;20049;-61
2022/03/15 20:48:16;;;;;;;104.63;20.58;;;;;;;;;;20913923;28;20393;-57
2022/03/15 20:58:18;;;;;;;107.28;20.13;;;;;;;;;;20913821;28;20041;-58
2022/03/15 21:08:22;;;;;;;133.95;23.17;;;;;;;;;;20913803;28;20052;-59
2022/03/15 21:18:24;;;;;;;122.00;20.08;;;;;;;;;;20912188;28;20115;-63
2022/03/15 21:28:26;;;;;;;107.10;20.65;;;;;;;;;;20912284;28;20048;-60
2022/03/15 21:38:30;;;;;;;117.30;21.80;;;;;;;;;;20912559;28;20045;-60
2022/03/15 21:48:41;;;;;;;98.97;20.90;;;;;;;;;;20911435;28;20135;-57
2022/03/15 21:58:43;;;;;;;115.20;21.25;;;;;;;;;;20911499;28;20049;-61
2022/03/15 22:08:45;;;;;;;110.93;24.92;;;;;;;;;;20917330;28;20060;-57
2022/03/15 22:18:47;;;;;;;115.47;22.23;;;;;;;;;;20926342;28;20060;-56
2022/03/15 22:28:52;;;;;;;129.45;19.52;;;;;;;;;;20924700;28;20080;-61
2022/03/15 23:30:37;;;;;;;123.70;18.73;;;;;;;;;;20921216;28;20524;-55
2022/03/15 23:40:39;;;;;;;130.75;20.55;;;;;;;;;;20919175;28;20056;-61
2022/03/15 23:50:45;;;;;;;112.63;19.50;;;;;;;;;;20918365;28;20056;-60
